Time;durP1;ratioP1;P1;durP2;ratioP2;P2;SDS_P1;SDS_P2;PMS_P1;PMS_P2;Temp;Humidity;BMP_temperature;BMP_pressure;BME280_temperature;BME280_humidity;BME280_pressure;Samples;Min_cycle;Max_cycle;Signal;HPM_P1;HPM_P2
2022/11/11 00:00:49;;;;;;;44.37;26.43;;;10.60;99.90;;;;;;4879302;29;38808;-77
2022/11/11 00:03:19;;;;;;;44.47;28.77;;;10.60;99.90;;;;;;4879526;29;38796;-76
2022/11/11 00:05:45;;;;;;;44.90;28.20;;;10.60;99.90;;;;;;4873171;29;39308;-77
2022/11/11 00:08:11;;;;;;;46.50;28.67;;;10.60;99.90;;;;;;4859414;29;37604;-77
2022/11/11 00:10:37;;;;;;;46.07;29.07;;;10.60;99.90;;;;;;4864668;29;40263;-77
2022/11/11 00:13:06;;;;;;;52.10;30.07;;;10.60;99.90;;;;;;4859601;29;38913;-77
2022/11/11 00:15:37;;;;;;;47.80;27.70;;;10.60;99.90;;;;;;4869877;29;38448;-77
2022/11/11 00:26:19;;;;;;;43.97;28.93;;;10.60;99.90;;;;;;4882258;29;39908;-76
2022/11/11 00:28:45;;;;;;;50.13;29.50;;;10.60;99.90;;;;;;4881738;29;37654;-76
2022/11/11 00:31:12;;;;;;;47.87;30.20;;;10.50;99.90;;;;;;4878224;29;38522;-77
2022/11/11 00:33:39;;;;;;;61.03;31.63;;;10.50;99.90;;;;;;4880314;29;37721;-77
2022/11/11 00:36:06;;;;;;;49.08;29.58;;;10.50;99.90;;;;;;4881352;29;39448;-77
2022/11/11 00:38:44;;;;;;;56.15;29.25;;;10.50;99.90;;;;;;4884881;29;36169;-77
2022/11/11 00:41:20;;;;;;;48.17;30.50;;;10.40;99.90;;;;;;4890980;29;39180;-77
2022/11/11 00:43:46;;;;;;;50.87;28.83;;;10.50;99.90;;;;;;4892224;29;37101;-77
2022/11/11 00:51:44;;;;;;;50.27;29.53;;;10.50;99.90;;;;;;4891187;29;49463;-77
2022/11/11 00:54:10;;;;;;;56.20;31.87;;;10.40;99.90;;;;;;4887154;29;38315;-76
2022/11/11 00:56:37;;;;;;;50.63;30.20;;;10.50;99.90;;;;;;4884365;29;38414;-77
2022/11/11 00:59:06;;;;;;;58.67;30.63;;;10.50;99.90;;;;;;4881370;29;36444;-77
2022/11/11 01:01:36;;;;;;;52.93;29.87;;;10.50;99.90;;;;;;4886650;29;39800;-77
2022/11/11 01:04:04;;;;;;;50.07;30.50;;;10.50;99.90;;;;;;4893826;29;37519;-78
2022/11/11 01:06:30;;;;;;;53.00;30.73;;;10.40;99.90;;;;;;4887524;29;38408;-76
2022/11/11 01:08:56;;;;;;;55.47;32.42;;;10.50;99.90;;;;;;4877403;29;36598;-76
2022/11/11 01:11:24;;;;;;;55.17;32.53;;;10.50;99.90;;;;;;4880754;29;20057;-77
2022/11/11 01:13:50;;;;;;;58.97;32.27;;;10.50;99.90;;;;;;4883344;29;38263;-76
2022/11/11 01:16:23;;;;;;;54.58;30.73;;;10.50;99.90;;;;;;4883306;29;35834;-77
2022/11/11 01:18:49;;;;;;;;;;;10.40;99.90;;;;;;4894011;29;36206;-76
2022/11/11 01:21:25;;;;;;;52.63;29.57;;;10.40;99.90;;;;;;4888252;29;39532;-77
2022/11/11 01:23:52;;;;;;;59.70;31.83;;;10.40;99.90;;;;;;4889028;29;37567;-76
2022/11/11 01:26:25;;;;;;;56.07;31.07;;;10.40;99.90;;;;;;4882299;29;38131;-77
2022/11/11 01:28:53;;;;;;;62.73;31.13;;;10.30;99.90;;;;;;4888346;29;37364;-77
2022/11/11 01:31:21;;;;;;;57.20;32.53;;;10.40;99.90;;;;;;4891440;29;40396;-76
2022/11/11 01:33:47;;;;;;;54.33;32.07;;;10.30;99.90;;;;;;4896470;29;38720;-76
2022/11/11 01:36:17;;;;;;;53.10;29.90;;;10.30;99.90;;;;;;4884901;29;38814;-76
2022/11/11 01:38:47;;;;;;;55.50;31.27;;;10.40;99.90;;;;;;4886445;29;36328;-77
2022/11/11 01:41:35;;;;;;;51.47;30.70;;;10.30;99.90;;;;;;4880023;29;40029;-76
2022/11/11 01:44:10;;;;;;;57.27;31.87;;;10.30;99.90;;;;;;4884675;29;38825;-77
2022/11/11 01:46:41;;;;;;;57.13;30.40;;;10.30;99.90;;;;;;4871116;29;49134;-77
2022/11/11 01:49:25;;;;;;;61.67;32.50;;;10.30;99.90;;;;;;4864446;29;37681;-76
2022/11/11 01:52:22;;;;;;;53.83;31.47;;;10.30;99.90;;;;;;4865801;29;38444;-76
2022/11/11 01:55:01;;;;;;;56.97;30.60;;;10.30;99.90;;;;;;4884168;29;47129;-76
2022/11/11 01:57:45;;;;;;;54.57;32.27;;;10.30;99.90;;;;;;4885672;29;38265;-76
2022/11/11 02:03:05;;;;;;;57.23;33.00;;;10.20;99.90;;;;;;5248965;23;20056;-79
2022/11/11 02:05:46;;;;;;;57.93;34.67;;;10.20;99.90;;;;;;4886468;29;47525;-78
2022/11/11 02:08:30;;;;;;;57.73;32.57;;;10.20;99.90;;;;;;4887662;29;40501;-80
2022/11/11 02:11:02;;;;;;;64.00;35.70;;;10.20;99.90;;;;;;4900417;29;36374;-79
2022/11/11 02:16:14;;;;;;;58.03;33.00;;;10.10;99.90;;;;;;4887716;29;38949;-80
2022/11/11 02:18:42;;;;;;;64.37;35.63;;;10.20;99.90;;;;;;4906711;29;38378;-80
2022/11/11 02:21:17;;;;;;;63.03;35.90;;;10.20;99.90;;;;;;4888997;29;37689;-78
2022/11/11 02:23:58;;;;;;;67.17;37.67;;;10.20;99.90;;;;;;4891968;29;37870;-80
2022/11/11 02:26:25;;;;;;;70.90;38.47;;;10.20;99.90;;;;;;4889770;29;37206;-79
2022/11/11 02:28:52;;;;;;;61.70;36.30;;;10.20;99.90;;;;;;4888452;29;38034;-79
2022/11/11 02:31:18;;;;;;;69.67;37.33;;;10.20;99.90;;;;;;4894608;29;37758;-80
2022/11/11 02:33:44;;;;;;;64.77;34.23;;;10.20;99.90;;;;;;4893020;29;38464;-79
2022/11/11 02:36:14;;;;;;;57.92;33.58;;;10.20;99.90;;;;;;4883493;29;38652;-79
2022/11/11 02:38:41;;;;;;;62.00;34.33;;;10.20;99.90;;;;;;4885595;29;38089;-80
2022/11/11 02:43:52;;;;;;;68.95;35.63;;;10.20;99.90;;;;;;4886671;29;39410;-79
2022/11/11 02:46:18;;;;;;;68.40;34.47;;;10.20;99.90;;;;;;4881629;29;38953;-79
2022/11/11 02:48:46;;;;;;;52.33;30.93;;;10.20;99.90;;;;;;4886883;29;38735;-79
2022/11/11 02:51:12;;;;;;;62.00;33.53;;;10.10;99.90;;;;;;4887076;29;36275;-78
2022/11/11 02:53:38;;;;;;;63.37;34.67;;;10.10;99.90;;;;;;4886570;29;38323;-78
2022/11/11 02:56:05;;;;;;;58.17;33.20;;;10.10;99.90;;;;;;4900751;29;36910;-80
2022/11/11 02:58:31;;;;;;;64.57;34.30;;;10.10;99.90;;;;;;4870026;29;47240;-80
2022/11/11 03:00:57;;;;;;;64.07;34.30;;;10.10;99.90;;;;;;4864737;29;36213;-79
2022/11/11 03:03:23;;;;;;;58.43;33.30;;;10.10;99.90;;;;;;4889791;29;39461;-79
2022/11/11 03:05:49;;;;;;;58.27;34.73;;;10.10;99.90;;;;;;4890055;29;39528;-80
2022/11/11 03:08:15;;;;;;;60.00;33.10;;;10.00;99.90;;;;;;4888920;29;39335;-79
2022/11/11 03:10:41;;;;;;;58.43;34.23;;;10.10;99.90;;;;;;4891666;29;38042;-79
2022/11/11 03:13:08;;;;;;;59.10;33.80;;;10.00;99.90;;;;;;4899928;29;38839;-79
2022/11/11 03:15:34;;;;;;;65.63;33.43;;;10.10;99.90;;;;;;4884682;29;38965;-80
2022/11/11 03:18:00;;;;;;;56.83;34.20;;;10.00;99.90;;;;;;4886359;29;38174;-79
2022/11/11 03:23:13;;;;;;;60.33;34.03;;;10.00;99.90;;;;;;4886815;29;39538;-81
2022/11/11 03:25:43;;;;;;;56.73;32.53;;;10.10;99.90;;;;;;4884118;29;38501;-80
2022/11/11 03:28:19;;;;;;;58.47;32.27;;;10.00;99.90;;;;;;4886388;29;39120;-79
2022/11/11 03:30:47;;;;;;;58.37;33.40;;;10.00;99.90;;;;;;4884834;29;37788;-79
2022/11/11 03:33:15;;;;;;;64.40;34.23;;;10.00;99.90;;;;;;4881147;29;39512;-78
2022/11/11 03:35:42;;;;;;;53.70;32.23;;;10.00;99.90;;;;;;4887560;29;39759;-80
2022/11/11 03:38:23;;;;;;;51.50;31.87;;;10.00;99.90;;;;;;4883856;29;38477;-79
2022/11/11 03:40:52;;;;;;;65.10;33.70;;;10.00;99.90;;;;;;4885248;29;37524;-79
2022/11/11 03:43:22;;;;;;;53.50;33.23;;;10.10;99.90;;;;;;4881890;29;37396;-77
2022/11/11 03:45:49;;;;;;;54.47;33.43;;;10.10;99.90;;;;;;4890648;29;38544;-80
2022/11/11 03:48:15;;;;;;;55.67;32.50;;;10.00;99.90;;;;;;4892384;29;39110;-78
2022/11/11 03:50:41;;;;;;;59.37;34.33;;;10.10;99.90;;;;;;4884718;29;38079;-79
2022/11/11 03:53:08;;;;;;;61.70;33.87;;;10.10;99.90;;;;;;4905209;29;39629;-79
2022/11/11 03:55:34;;;;;;;58.17;34.33;;;10.10;99.90;;;;;;4882832;29;39215;-79
2022/11/11 03:58:00;;;;;;;57.77;34.20;;;10.10;99.90;;;;;;4886210;29;38341;-78
2022/11/11 04:00:27;;;;;;;64.03;35.30;;;10.00;99.90;;;;;;4880814;29;36806;-77
2022/11/11 04:11:34;;;;;;;58.73;33.87;;;10.00;99.90;;;;;;4881858;29;49835;-80
2022/11/11 04:16:52;;;;;;;57.93;34.23;;;10.00;99.90;;;;;;4888455;29;49654;-79
2022/11/11 04:22:03;;;;;;;59.43;35.23;;;9.90;99.90;;;;;;4886116;29;39070;-80
2022/11/11 04:27:16;;;;;;;61.67;34.97;;;9.90;99.90;;;;;;4888138;29;39292;-79
2022/11/11 04:29:43;;;;;;;57.87;33.63;;;9.90;99.90;;;;;;4885574;29;39038;-79
2022/11/11 04:34:58;;;;;;;58.90;35.20;;;9.90;99.90;;;;;;4890937;29;39389;-79
2022/11/11 04:37:26;;;;;;;52.53;32.23;;;9.90;99.90;;;;;;4885994;29;38972;-80
2022/11/11 04:42:38;;;;;;;52.53;31.13;;;9.90;99.90;;;;;;4877046;29;49712;-80
2022/11/11 04:48:00;;;;;;;58.53;31.30;;;9.80;99.90;;;;;;4882440;29;39049;-80
2022/11/11 04:50:46;;;;;;;57.33;32.50;;;9.80;99.90;;;;;;4885260;29;38363;-80
2022/11/11 04:53:14;;;;;;;55.33;32.03;;;9.70;99.90;;;;;;4884506;29;38118;-79
2022/11/11 04:58:29;;;;;;;53.20;31.60;;;9.70;99.90;;;;;;4887546;29;39979;-79
2022/11/11 05:00:55;;;;;;;52.73;29.80;;;9.70;99.90;;;;;;4888829;29;37955;-80
2022/11/11 05:03:24;;;;;;;62.60;32.97;;;9.70;99.90;;;;;;4890666;29;38570;-80
2022/11/11 05:08:57;;;;;;;59.47;30.67;;;9.70;99.90;;;;;;4890405;29;49005;-79
2022/11/11 05:11:23;;;;;;;55.43;29.70;;;9.70;99.90;;;;;;4888873;29;37819;-80
2022/11/11 05:22:20;;;;;;;56.23;32.13;;;9.70;99.90;;;;;;4887449;29;39720;-80
2022/11/11 05:27:31;;;;;;;57.20;32.63;;;9.70;99.90;;;;;;4882398;29;49183;-80
2022/11/11 05:29:57;;;;;;;57.23;31.47;;;9.60;99.90;;;;;;4891921;29;40252;-80
2022/11/11 05:32:24;;;;;;;56.20;32.20;;;9.70;99.90;;;;;;4885953;29;38297;-80
2022/11/11 05:34:50;;;;;;;54.47;32.60;;;9.60;99.90;;;;;;4890324;29;37529;-80
2022/11/11 05:37:17;;;;;;;48.33;30.30;;;9.60;99.90;;;;;;4903729;29;38103;-81
2022/11/11 05:39:43;;;;;;;58.03;32.00;;;9.60;99.90;;;;;;4884049;29;38688;-80
2022/11/11 05:42:10;;;;;;;53.97;32.07;;;9.60;99.90;;;;;;4887946;29;38497;-80
2022/11/11 05:44:36;;;;;;;55.70;33.30;;;9.70;99.90;;;;;;4894922;29;38029;-80
2022/11/11 05:47:03;;;;;;;54.17;31.57;;;9.70;99.90;;;;;;4897315;29;38281;-80
2022/11/11 05:49:29;;;;;;;54.37;31.90;;;9.70;99.90;;;;;;4892813;29;49359;-80
2022/11/11 05:51:55;;;;;;;52.20;32.00;;;9.70;99.90;;;;;;4885816;29;39279;-80
2022/11/11 05:54:22;;;;;;;50.10;30.83;;;9.70;99.90;;;;;;4891444;29;38330;-80
2022/11/11 05:56:48;;;;;;;53.93;30.93;;;9.70;99.90;;;;;;4893374;29;38297;-79
2022/11/11 05:59:15;;;;;;;53.13;30.63;;;9.70;99.90;;;;;;4889872;29;38433;-81
2022/11/11 06:01:41;;;;;;;48.80;30.33;;;9.70;99.90;;;;;;4884913;29;37048;-79
2022/11/11 06:04:07;;;;;;;49.30;31.80;;;9.70;99.90;;;;;;4891231;29;38667;-80
2022/11/11 06:06:34;;;;;;;47.80;30.43;;;9.70;99.90;;;;;;4886231;29;38928;-80
2022/11/11 06:09:02;;;;;;;51.20;31.77;;;9.70;99.90;;;;;;4887106;29;37551;-79
2022/11/11 06:11:28;;;;;;;53.30;30.80;;;9.70;99.90;;;;;;4889903;29;38017;-79
2022/11/11 06:13:55;;;;;;;44.70;30.57;;;9.70;99.90;;;;;;4911893;29;37570;-80
2022/11/11 06:16:21;;;;;;;47.73;30.10;;;9.70;99.90;;;;;;4887696;29;39104;-80
2022/11/11 06:18:48;;;;;;;46.90;28.30;;;9.70;99.90;;;;;;4884586;29;38682;-80
2022/11/11 06:21:14;;;;;;;53.27;29.47;;;9.70;99.90;;;;;;4893069;29;39163;-80
2022/11/11 06:23:41;;;;;;;46.93;29.33;;;9.70;99.90;;;;;;4888238;29;36477;-80
2022/11/11 06:26:13;;;;;;;44.13;27.50;;;9.70;99.90;;;;;;4890360;29;39892;-79
2022/11/11 06:28:46;;;;;;;49.30;29.48;;;9.70;99.90;;;;;;4895854;29;40001;-80
2022/11/11 06:31:20;;;;;;;51.77;27.80;;;9.80;99.90;;;;;;4888722;29;36712;-80
2022/11/11 06:33:46;;;;;;;46.10;28.40;;;9.70;99.90;;;;;;4894833;29;37914;-80
2022/11/11 06:36:14;;;;;;;43.97;26.90;;;9.70;99.90;;;;;;4890540;29;37860;-79
2022/11/11 06:38:41;;;;;;;50.20;27.73;;;9.70;99.90;;;;;;4894919;29;38525;-80
2022/11/11 06:41:09;;;;;;;38.73;26.57;;;9.70;99.90;;;;;;4891523;29;38380;-78
2022/11/11 06:43:35;;;;;;;44.43;28.00;;;9.70;99.90;;;;;;4884352;29;37811;-79
2022/11/11 06:46:01;;;;;;;41.07;26.50;;;9.70;99.90;;;;;;4890490;29;39368;-79
2022/11/11 06:48:28;;;;;;;39.83;28.73;;;9.70;99.90;;;;;;4889211;29;38311;-79
2022/11/11 06:51:04;;;;;;;43.40;27.93;;;9.70;99.90;;;;;;4909831;29;39292;-81
2022/11/11 06:53:30;;;;;;;47.63;27.23;;;9.70;99.90;;;;;;4886475;29;47819;-79
2022/11/11 06:55:57;;;;;;;48.73;28.53;;;9.70;99.90;;;;;;4891012;29;37567;-80
2022/11/11 06:58:23;;;;;;;43.30;27.53;;;9.70;99.90;;;;;;4889715;29;38428;-80
2022/11/11 07:00:50;;;;;;;36.83;25.73;;;9.70;99.90;;;;;;4904985;29;38704;-80
2022/11/11 07:03:20;;;;;;;45.03;28.43;;;9.70;99.90;;;;;;4885312;29;37970;-80
2022/11/11 07:05:47;;;;;;;42.53;27.00;;;9.60;99.90;;;;;;4891168;29;39585;-79
2022/11/11 07:08:17;;;;;;;42.67;27.50;;;9.70;99.90;;;;;;4891686;29;40112;-79
2022/11/11 07:10:46;;;;;;;43.50;27.00;;;9.70;99.90;;;;;;4883080;29;39812;-78
2022/11/11 07:13:16;;;;;;;40.50;27.53;;;9.70;99.90;;;;;;4884356;29;36916;-80
2022/11/11 07:15:43;;;;;;;46.97;28.67;;;9.60;99.90;;;;;;4884263;29;40436;-79
2022/11/11 07:18:10;;;;;;;44.67;29.10;;;9.70;99.90;;;;;;4893225;29;37104;-79
2022/11/11 07:20:36;;;;;;;49.40;29.67;;;9.70;99.90;;;;;;4889335;29;38540;-80
2022/11/11 07:23:03;;;;;;;42.83;28.47;;;9.70;99.90;;;;;;4890496;29;38027;-80
2022/11/11 07:25:29;;;;;;;46.23;28.97;;;9.70;99.90;;;;;;4892719;29;38520;-80
2022/11/11 07:27:55;;;;;;;41.67;28.20;;;9.70;99.90;;;;;;4891710;29;38576;-79
2022/11/11 07:30:21;;;;;;;44.57;27.70;;;9.70;99.90;;;;;;4886706;29;39509;-80
2022/11/11 07:32:49;;;;;;;42.37;27.57;;;9.70;99.90;;;;;;4892392;29;37373;-80
2022/11/11 07:35:16;;;;;;;49.10;28.70;;;9.60;99.90;;;;;;4888913;29;39064;-80
2022/11/11 07:37:43;;;;;;;49.87;28.63;;;9.70;99.90;;;;;;4883937;29;38522;-80
2022/11/11 07:40:12;;;;;;;41.90;28.93;;;9.70;99.90;;;;;;4883872;29;39376;-80
2022/11/11 07:42:39;;;;;;;45.57;28.87;;;9.70;99.90;;;;;;4887613;29;38280;-78
2022/11/11 07:45:06;;;;;;;45.43;28.67;;;9.70;99.90;;;;;;4882247;29;38389;-79
2022/11/11 07:47:35;;;;;;;50.53;29.97;;;9.70;99.90;;;;;;4889535;29;39994;-79
2022/11/11 07:50:03;;;;;;;51.03;30.73;;;9.70;99.90;;;;;;4891735;29;38823;-79
2022/11/11 07:52:29;;;;;;;46.00;30.60;;;9.80;99.90;;;;;;4894890;29;38487;-79
2022/11/11 07:54:55;;;;;;;50.87;30.60;;;9.80;99.90;;;;;;4891061;29;37716;-80
2022/11/11 07:57:22;;;;;;;47.70;30.40;;;9.80;99.90;;;;;;4894034;29;38325;-79
2022/11/11 07:59:48;;;;;;;46.10;29.20;;;9.80;99.90;;;;;;4878901;29;37098;-79
2022/11/11 08:02:14;;;;;;;41.73;27.90;;;9.80;99.90;;;;;;4884423;29;37647;-79
2022/11/11 08:04:40;;;;;;;46.20;28.30;;;9.80;99.90;;;;;;4878038;29;39852;-79
2022/11/11 08:07:06;;;;;;;39.57;27.57;;;9.90;99.90;;;;;;4879869;29;37432;-79
2022/11/11 08:09:32;;;;;;;45.07;28.33;;;9.90;99.90;;;;;;4893202;29;38276;-78
2022/11/11 08:14:43;;;;;;;42.30;28.83;;;9.90;99.90;;;;;;4882400;29;48811;-79
2022/11/11 08:17:09;;;;;;;42.38;28.63;;;9.90;99.90;;;;;;4886775;29;38570;-79
2022/11/11 08:19:35;;;;;;;45.97;28.25;;;9.90;99.90;;;;;;4889319;29;38678;-78
2022/11/11 08:22:03;;;;;;;39.20;28.33;;;9.90;99.90;;;;;;4886762;29;38306;-79
2022/11/11 08:24:29;;;;;;;43.95;28.45;;;9.90;99.90;;;;;;4886140;29;48586;-80
2022/11/11 08:26:55;;;;;;;42.03;27.07;;;10.00;99.90;;;;;;4893545;29;39300;-79
2022/11/11 08:29:21;;;;;;;39.83;28.30;;;10.00;99.90;;;;;;4885730;29;39325;-78
2022/11/11 08:31:47;;;;;;;40.83;27.90;;;10.00;99.90;;;;;;4882154;29;35847;-78
2022/11/11 08:34:14;;;;;;;39.85;27.75;;;10.00;99.90;;;;;;4893353;29;39465;-78
2022/11/11 08:36:40;;;;;;;44.42;27.17;;;10.10;99.90;;;;;;4886714;29;39060;-80
2022/11/11 08:39:06;;;;;;;38.60;25.77;;;10.10;99.90;;;;;;4888316;29;39222;-79
2022/11/11 08:41:32;;;;;;;36.28;25.52;;;10.10;99.90;;;;;;4885799;29;37885;-78
2022/11/11 08:43:59;;;;;;;39.63;26.00;;;10.20;99.90;;;;;;4886845;29;36936;-78
2022/11/11 08:46:26;;;;;;;36.67;24.05;;;10.10;99.90;;;;;;4883664;29;38548;-79
2022/11/11 08:48:52;;;;;;;33.17;23.63;;;10.20;99.90;;;;;;4877838;29;37824;-78
2022/11/11 08:51:18;;;;;;;33.63;24.10;;;10.10;99.90;;;;;;4886700;29;40682;-78
2022/11/11 08:53:44;;;;;;;34.07;24.03;;;10.20;99.90;;;;;;4889286;29;39458;-78
2022/11/11 08:56:11;;;;;;;36.77;25.77;;;10.20;99.90;;;;;;4886013;29;38335;-79
2022/11/11 08:58:37;;;;;;;37.43;23.87;;;10.20;99.90;;;;;;4887585;29;38223;-77
2022/11/11 09:01:03;;;;;;;37.43;24.87;;;10.20;99.90;;;;;;4885144;29;36962;-79
2022/11/11 09:03:30;;;;;;;41.07;26.97;;;10.20;99.90;;;;;;4882684;29;39258;-79
2022/11/11 09:05:59;;;;;;;33.93;24.50;;;10.20;99.90;;;;;;4886790;29;38723;-77
2022/11/11 09:08:25;;;;;;;40.87;25.67;;;10.20;99.90;;;;;;4886183;29;38416;-78
2022/11/11 09:10:51;;;;;;;33.57;23.60;;;10.30;99.90;;;;;;4886124;29;37882;-79
2022/11/11 09:13:17;;;;;;;34.27;24.93;;;10.30;99.90;;;;;;4889078;29;38676;-79
2022/11/11 09:15:44;;;;;;;35.63;24.23;;;10.30;99.90;;;;;;4886303;29;38329;-79
2022/11/11 09:18:10;;;;;;;34.67;23.90;;;10.30;99.90;;;;;;4883655;29;38558;-79
2022/11/11 09:20:36;;;;;;;32.00;25.03;;;10.30;99.90;;;;;;4886261;29;38814;-78
2022/11/11 09:23:02;;;;;;;36.70;23.45;;;10.30;99.90;;;;;;4888463;29;38839;-79
2022/11/11 09:25:28;;;;;;;35.45;23.88;;;10.40;99.90;;;;;;4873269;29;46612;-79
2022/11/11 09:28:01;;;;;;;31.77;21.83;;;10.40;99.90;;;;;;4883876;29;38682;-78
2022/11/11 09:30:30;;;;;;;28.80;19.98;;;10.40;99.90;;;;;;4881540;29;38729;-78
2022/11/11 09:33:01;;;;;;;33.28;21.70;;;10.50;99.90;;;;;;4885503;29;39749;-79
2022/11/11 09:35:28;;;;;;;29.27;20.70;;;10.50;99.90;;;;;;4886261;29;39898;-77
2022/11/11 09:37:56;;;;;;;25.75;19.48;;;10.50;99.90;;;;;;4890137;29;36685;-79
2022/11/11 09:40:24;;;;;;;27.65;17.92;;;10.50;99.90;;;;;;4886884;29;38584;-79
2022/11/11 09:43:12;;;;;;;28.27;20.13;;;10.50;99.90;;;;;;4890091;29;38841;-78
2022/11/11 09:45:41;;;;;;;32.53;20.23;;;10.50;99.90;;;;;;4889251;29;48009;-78
2022/11/11 09:48:30;;;;;;;34.17;20.03;;;10.40;99.90;;;;;;4907027;29;37127;-79
2022/11/11 09:51:00;;;;;;;25.65;19.08;;;10.30;99.90;;;;;;4891603;29;38068;-78
2022/11/11 09:53:37;;;;;;;30.90;19.58;;;10.40;99.90;;;;;;4896565;29;38899;-79
2022/11/11 09:56:03;;;;;;;24.05;17.70;;;10.40;99.90;;;;;;4888584;29;39919;-79
2022/11/11 09:58:42;;;;;;;23.30;17.30;;;10.40;99.90;;;;;;4895417;29;37935;-77
2022/11/11 10:01:37;;;;;;;22.53;17.20;;;10.50;99.90;;;;;;4890597;29;37354;-77
2022/11/11 10:04:24;;;;;;;25.10;17.92;;;10.50;99.90;;;;;;4874267;29;40352;-77
2022/11/11 10:06:56;;;;;;;25.20;18.40;;;10.50;99.90;;;;;;4904396;29;37362;-79
2022/11/11 10:09:35;;;;;;;25.10;17.33;;;10.50;99.90;;;;;;4886948;29;39350;-77
2022/11/11 10:12:01;;;;;;;25.23;18.67;;;10.40;99.90;;;;;;4909472;29;39094;-81
2022/11/11 10:14:35;;;;;;;23.27;16.55;;;10.50;99.90;;;;;;4920167;29;38032;-79
2022/11/11 10:17:20;;;;;;;25.38;17.30;;;10.50;99.90;;;;;;4907492;29;38303;-80
2022/11/11 10:19:52;;;;;;;21.98;16.33;;;10.50;99.90;;;;;;4904022;29;49054;-80
2022/11/11 10:22:33;;;;;;;28.80;17.95;;;10.60;99.90;;;;;;4910211;29;37102;-80
2022/11/11 10:25:11;;;;;;;20.75;16.63;;;10.70;99.90;;;;;;4910004;29;38917;-80
2022/11/11 10:27:44;;;;;;;32.20;16.83;;;10.70;99.90;;;;;;4909236;29;48851;-80
2022/11/11 10:30:28;;;;;;;23.13;15.32;;;10.70;99.90;;;;;;4907244;29;38704;-80
2022/11/11 10:33:11;;;;;;;23.48;15.82;;;10.70;99.90;;;;;;4907251;29;38001;-81
2022/11/11 10:35:39;;;;;;;26.83;17.98;;;10.70;99.90;;;;;;4904948;29;47623;-79
2022/11/11 10:38:45;;;;;;;24.20;17.00;;;10.60;99.90;;;;;;4909720;28;38934;-82
2022/11/11 10:41:33;;;;;;;24.13;15.88;;;10.60;99.90;;;;;;4896464;29;38542;-81
2022/11/11 10:43:59;;;;;;;26.33;16.80;;;10.70;99.90;;;;;;4901816;29;37736;-81
2022/11/11 10:46:31;;;;;;;24.58;16.48;;;10.80;99.90;;;;;;4911876;29;37603;-81
2022/11/11 10:49:23;;;;;;;23.47;14.70;;;10.80;99.90;;;;;;4899899;29;35448;-80
2022/11/11 10:51:57;;;;;;;21.07;15.97;;;10.80;99.90;;;;;;4902625;29;47062;-79
2022/11/11 10:54:32;;;;;;;23.55;15.93;;;10.80;99.90;;;;;;4902405;29;36337;-82
2022/11/11 10:57:17;;;;;;;22.42;15.35;;;10.90;99.90;;;;;;4895139;29;39360;-80
2022/11/11 10:59:55;;;;;;;22.60;17.23;;;10.90;99.90;;;;;;4920884;28;47398;-80
2022/11/11 11:02:50;;;;;;;26.10;16.70;;;10.70;99.90;;;;;;4908766;29;38156;-79
2022/11/11 11:05:30;;;;;;;34.72;16.98;;;10.70;99.90;;;;;;4884737;29;36027;-81
2022/11/11 11:08:05;;;;;;;25.38;17.60;;;10.60;99.90;;;;;;4910014;29;37746;-80
2022/11/11 11:10:38;;;;;;;27.83;17.48;;;10.60;99.90;;;;;;4909351;29;47176;-81
2022/11/11 11:13:17;;;;;;;22.13;16.17;;;10.60;99.90;;;;;;4899923;29;38046;-80
2022/11/11 11:15:48;;;;;;;22.02;16.15;;;10.50;99.90;;;;;;4898966;29;36867;-81
2022/11/11 11:18:17;;;;;;;19.30;15.18;;;10.70;99.90;;;;;;4903865;29;40317;-79
2022/11/11 11:20:59;;;;;;;21.60;15.43;;;10.80;99.90;;;;;;4915709;29;37004;-81
2022/11/11 11:23:38;;;;;;;19.77;14.52;;;10.80;99.90;;;;;;4901427;29;38613;-79
2022/11/11 11:26:04;;;;;;;25.63;15.82;;;10.90;99.90;;;;;;4916431;29;36067;-79
2022/11/11 11:28:33;;;;;;;23.20;15.65;;;11.00;99.90;;;;;;4881724;29;46296;-80
2022/11/11 11:31:05;;;;;;;21.70;15.98;;;11.10;99.90;;;;;;4891642;29;37597;-82
2022/11/11 11:33:49;;;;;;;23.80;15.82;;;11.10;99.90;;;;;;4898568;29;49029;-80
2022/11/11 11:36:17;;;;;;;28.73;16.38;;;11.00;99.90;;;;;;4898702;29;38077;-79
2022/11/11 11:38:46;;;;;;;23.80;16.63;;;10.90;99.90;;;;;;4899711;29;37643;-81
2022/11/11 11:41:12;;;;;;;24.45;15.32;;;11.00;99.90;;;;;;4905591;29;39526;-81
2022/11/11 11:43:44;;;;;;;21.35;15.85;;;10.90;99.90;;;;;;4901821;29;38922;-82
2022/11/11 11:46:25;;;;;;;21.55;15.65;;;11.10;99.90;;;;;;4921058;29;37695;-80
2022/11/11 11:49:06;;;;;;;26.45;15.52;;;11.20;99.90;;;;;;4905738;29;39139;-82
2022/11/11 11:51:44;;;;;;;23.27;14.05;;;11.30;99.90;;;;;;4883778;29;49250;-81
2022/11/11 11:54:37;;;;;;;20.42;13.70;;;11.40;99.90;;;;;;4885982;29;39577;-81
2022/11/11 11:57:26;;;;;;;20.52;14.60;;;11.50;99.90;;;;;;4885553;29;37072;-81
2022/11/11 11:59:59;;;;;;;20.38;13.75;;;11.50;99.90;;;;;;4883696;29;39223;-82
2022/11/11 12:02:48;;;;;;;;;;;11.70;99.90;;;;;;4896626;29;38875;-81
2022/11/11 12:05:21;;;;;;;21.88;12.60;;;11.70;99.90;;;;;;4914441;29;37635;-81
2022/11/11 12:08:00;;;;;;;18.08;12.40;;;11.70;99.90;;;;;;4909073;29;38133;-82
2022/11/11 12:10:54;;;;;;;18.02;12.52;;;11.70;99.90;;;;;;4909848;29;37854;-81
2022/11/11 12:13:40;;;;;;;17.60;13.55;;;11.80;99.90;;;;;;4890602;29;39287;-81
2022/11/11 12:16:22;;;;;;;17.67;11.52;;;11.80;99.90;;;;;;4900917;29;36797;-81
2022/11/11 12:19:07;;;;;;;14.88;11.48;;;11.80;99.90;;;;;;4908039;29;36783;-81
2022/11/11 12:21:55;;;;;;;17.23;11.13;;;11.90;99.90;;;;;;4907064;29;48910;-81
2022/11/11 12:24:39;;;;;;;14.63;9.60;;;12.00;99.90;;;;;;4903257;29;37674;-81
2022/11/11 12:27:30;;;;;;;15.55;10.50;;;12.00;99.90;;;;;;4911384;29;38824;-81
2022/11/11 12:30:18;;;;;;;16.25;9.68;;;12.20;99.90;;;;;;4901480;29;36645;-81
2022/11/11 12:33:17;;;;;;;12.88;8.93;;;12.40;99.90;;;;;;4898902;29;47778;-81
2022/11/11 12:36:33;;;;;;;15.07;9.48;;;12.30;99.90;;;;;;4905300;29;49229;-82
2022/11/11 12:39:36;;;;;;;13.38;8.77;;;12.30;99.90;;;;;;4898880;29;47517;-81
2022/11/11 12:42:17;;;;;;;12.23;8.23;;;12.20;99.90;;;;;;4900569;29;47801;-81
2022/11/11 12:45:11;;;;;;;11.48;7.47;;;12.40;99.90;;;;;;4900965;29;39949;-81
2022/11/11 12:47:44;;;;;;;9.75;7.82;;;12.40;99.90;;;;;;4897219;29;47632;-81
2022/11/11 12:50:30;;;;;;;12.98;8.38;;;12.50;99.90;;;;;;4902417;29;37250;-80
2022/11/11 12:53:20;;;;;;;12.35;7.32;;;12.50;99.90;;;;;;4902277;29;36830;-80
2022/11/11 12:56:19;;;;;;;12.93;7.80;;;12.70;99.90;;;;;;4906207;29;46481;-81
2022/11/11 12:59:04;;;;;;;13.75;6.68;;;12.50;99.90;;;;;;4892011;29;47162;-81
2022/11/11 13:02:01;;;;;;;10.90;7.35;;;12.60;99.90;;;;;;4897915;29;47247;-81
2022/11/11 13:05:05;;;;;;;18.92;8.00;;;12.60;99.90;;;;;;4877283;29;36817;-81
2022/11/11 13:07:32;;;;;;;13.15;7.38;;;12.60;99.90;;;;;;4899915;29;48055;-81
2022/11/11 13:10:29;;;;;;;10.18;6.68;;;12.70;99.90;;;;;;4897300;29;37718;-81
2022/11/11 13:13:30;;;;;;;10.60;6.43;;;12.80;99.90;;;;;;4893980;29;48114;-81
2022/11/11 13:15:58;;;;;;;11.77;6.25;;;12.70;99.90;;;;;;4898555;29;47362;-81
2022/11/11 13:18:45;;;;;;;12.90;6.60;;;12.70;99.90;;;;;;4907816;29;40175;-80
2022/11/11 13:21:19;;;;;;;9.52;6.55;;;12.60;99.90;;;;;;4904604;29;37220;-80
2022/11/11 13:23:46;;;;;;;11.07;6.32;;;12.70;99.90;;;;;;4897384;29;37348;-81
2022/11/11 13:26:31;;;;;;;11.80;6.82;;;12.70;99.90;;;;;;4896958;29;37254;-81
2022/11/11 13:29:16;;;;;;;9.18;6.50;;;12.60;99.90;;;;;;4923472;29;37557;-81
2022/11/11 13:31:43;;;;;;;11.25;6.85;;;12.50;99.90;;;;;;4898745;29;48487;-81
2022/11/11 13:34:12;;;;;;;12.02;6.45;;;12.50;99.90;;;;;;4886256;29;38132;-81
2022/11/11 13:36:47;;;;;;;10.75;6.07;;;12.50;99.90;;;;;;4892209;29;37201;-80
2022/11/11 13:39:30;;;;;;;11.13;6.40;;;12.50;99.90;;;;;;4883382;29;39760;-80
2022/11/11 13:41:58;;;;;;;10.05;6.07;;;12.60;99.90;;;;;;4881428;29;36853;-80
2022/11/11 13:44:33;;;;;;;10.32;6.18;;;12.60;99.90;;;;;;4875460;29;36908;-80
2022/11/11 13:47:03;;;;;;;13.15;6.32;;;12.70;99.90;;;;;;4883491;29;37524;-80
2022/11/11 13:49:51;;;;;;;15.07;6.25;;;12.70;99.90;;;;;;4899910;29;47163;-80
2022/11/11 13:52:22;;;;;;;10.32;5.95;;;12.70;99.90;;;;;;4891748;29;36961;-80
2022/11/11 13:55:01;;;;;;;11.32;6.25;;;12.70;99.90;;;;;;4901502;29;37145;-80
2022/11/11 13:57:31;;;;;;;14.02;6.25;;;12.70;99.90;;;;;;4895079;29;37777;-80
2022/11/11 14:00:25;;;;;;;8.27;5.78;;;12.70;99.90;;;;;;4902097;29;39495;-80
2022/11/11 14:03:18;;;;;;;13.25;6.35;;;12.60;99.90;;;;;;4881577;29;48218;-81
2022/11/11 14:05:45;;;;;;;9.70;5.10;;;12.60;99.90;;;;;;4861839;29;46953;-81